sensor_id;sensor_type;location;lat;lon;timestamp;P1;durP1;ratioP1;P2;durP2;ratioP2
27746;SDS011;15138;51.012;4.692;2023-03-23T00:00:05;3.90;;;2.90;;
27746;SDS011;15138;51.012;4.692;2023-03-23T00:02:34;8.20;;;3.78;;
27746;SDS011;15138;51.012;4.692;2023-03-23T00:05:03;8.65;;;3.85;;
27746;SDS011;15138;51.012;4.692;2023-03-23T00:07:33;5.22;;;3.80;;
27746;SDS011;15138;51.012;4.692;2023-03-23T00:10:01;7.25;;;3.47;;
27746;SDS011;15138;51.012;4.692;2023-03-23T00:12:29;5.05;;;3.63;;
27746;SDS011;15138;51.012;4.692;2023-03-23T00:15:00;5.32;;;3.90;;
27746;SDS011;15138;51.012;4.692;2023-03-23T00:17:28;6.57;;;3.78;;
27746;SDS011;15138;51.012;4.692;2023-03-23T00:19:58;6.60;;;3.35;;
27746;SDS011;15138;51.012;4.692;2023-03-23T00:22:26;5.63;;;3.67;;
27746;SDS011;15138;51.012;4.692;2023-03-23T00:24:55;5.90;;;3.85;;
27746;SDS011;15138;51.012;4.692;2023-03-23T00:27:23;6.00;;;3.63;;
27746;SDS011;15138;51.012;4.692;2023-03-23T00:29:50;6.95;;;3.80;;
27746;SDS011;15138;51.012;4.692;2023-03-23T00:32:18;7.53;;;4.22;;
27746;SDS011;15138;51.012;4.692;2023-03-23T00:34:46;6.03;;;4.28;;
27746;SDS011;15138;51.012;4.692;2023-03-23T00:37:14;6.80;;;4.05;;
27746;SDS011;15138;51.012;4.692;2023-03-23T00:39:43;5.88;;;3.10;;
27746;SDS011;15138;51.012;4.692;2023-03-23T00:42:15;5.45;;;3.35;;
27746;SDS011;15138;51.012;4.692;2023-03-23T00:44:43;4.60;;;3.38;;
27746;SDS011;15138;51.012;4.692;2023-03-23T00:47:13;7.97;;;4.20;;
27746;SDS011;15138;51.012;4.692;2023-03-23T00:49:42;5.38;;;3.40;;
27746;SDS011;15138;51.012;4.692;2023-03-23T00:52:09;7.20;;;4.10;;
27746;SDS011;15138;51.012;4.692;2023-03-23T00:54:37;8.52;;;3.95;;
27746;SDS011;15138;51.012;4.692;2023-03-23T00:57:04;7.45;;;3.70;;
27746;SDS011;15138;51.012;4.692;2023-03-23T00:59:33;8.07;;;4.45;;
27746;SDS011;15138;51.012;4.692;2023-03-23T01:02:00;6.90;;;3.58;;
27746;SDS011;15138;51.012;4.692;2023-03-23T01:04:27;6.00;;;3.50;;
27746;SDS011;15138;51.012;4.692;2023-03-23T01:06:57;6.38;;;3.83;;
27746;SDS011;15138;51.012;4.692;2023-03-23T01:09:25;6.28;;;3.80;;
27746;SDS011;15138;51.012;4.692;2023-03-23T01:11:53;5.97;;;3.78;;
27746;SDS011;15138;51.012;4.692;2023-03-23T01:14:21;5.43;;;3.20;;
27746;SDS011;15138;51.012;4.692;2023-03-23T01:16:51;7.45;;;3.55;;
27746;SDS011;15138;51.012;4.692;2023-03-23T01:19:18;5.68;;;3.90;;
27746;SDS011;15138;51.012;4.692;2023-03-23T01:21:45;7.18;;;4.18;;
27746;SDS011;15138;51.012;4.692;2023-03-23T01:24:13;8.25;;;3.92;;
27746;SDS011;15138;51.012;4.692;2023-03-23T01:26:40;6.65;;;4.05;;
27746;SDS011;15138;51.012;4.692;2023-03-23T01:29:07;7.70;;;3.90;;
27746;SDS011;15138;51.012;4.692;2023-03-23T01:31:36;7.20;;;3.85;;
27746;SDS011;15138;51.012;4.692;2023-03-23T01:34:04;5.22;;;3.47;;
27746;SDS011;15138;51.012;4.692;2023-03-23T01:36:32;5.43;;;3.60;;
27746;SDS011;15138;51.012;4.692;2023-03-23T01:38:59;7.70;;;3.92;;
27746;SDS011;15138;51.012;4.692;2023-03-23T01:41:28;4.82;;;3.50;;
27746;SDS011;15138;51.012;4.692;2023-03-23T01:43:57;6.30;;;3.78;;
27746;SDS011;15138;51.012;4.692;2023-03-23T01:46:27;7.65;;;3.67;;
27746;SDS011;15138;51.012;4.692;2023-03-23T01:48:56;7.20;;;3.55;;
27746;SDS011;15138;51.012;4.692;2023-03-23T01:51:27;5.70;;;3.90;;
27746;SDS011;15138;51.012;4.692;2023-03-23T01:53:55;7.53;;;4.07;;
27746;SDS011;15138;51.012;4.692;2023-03-23T01:56:25;4.78;;;3.45;;
27746;SDS011;15138;51.012;4.692;2023-03-23T01:58:58;6.32;;;3.85;;
27746;SDS011;15138;51.012;4.692;2023-03-23T02:01:25;6.97;;;4.03;;
27746;SDS011;15138;51.012;4.692;2023-03-23T02:03:54;4.75;;;3.33;;
27746;SDS011;15138;51.012;4.692;2023-03-23T02:06:23;5.80;;;3.38;;
27746;SDS011;15138;51.012;4.692;2023-03-23T02:08:52;7.70;;;3.63;;
27746;SDS011;15138;51.012;4.692;2023-03-23T02:11:19;7.90;;;3.85;;
27746;SDS011;15138;51.012;4.692;2023-03-23T02:13:48;5.10;;;2.72;;
27746;SDS011;15138;51.012;4.692;2023-03-23T02:16:19;5.53;;;3.47;;
27746;SDS011;15138;51.012;4.692;2023-03-23T02:18:53;6.15;;;3.55;;
27746;SDS011;15138;51.012;4.692;2023-03-23T02:27:43;4.47;;;3.28;;
27746;SDS011;15138;51.012;4.692;2023-03-23T02:33:35;6.10;;;3.53;;
27746;SDS011;15138;51.012;4.692;2023-03-23T02:36:10;8.65;;;3.10;;
27746;SDS011;15138;51.012;4.692;2023-03-23T02:38:42;7.45;;;3.28;;
27746;SDS011;15138;51.012;4.692;2023-03-23T02:41:18;4.65;;;2.75;;
27746;SDS011;15138;51.012;4.692;2023-03-23T02:43:48;8.98;;;3.55;;
27746;SDS011;15138;51.012;4.692;2023-03-23T02:46:16;5.95;;;2.88;;
27746;SDS011;15138;51.012;4.692;2023-03-23T02:48:48;5.50;;;2.50;;
27746;SDS011;15138;51.012;4.692;2023-03-23T02:51:18;9.57;;;3.10;;
27746;SDS011;15138;51.012;4.692;2023-03-23T02:53:47;8.50;;;2.90;;
27746;SDS011;15138;51.012;4.692;2023-03-23T02:56:18;8.18;;;2.65;;
27746;SDS011;15138;51.012;4.692;2023-03-23T02:58:47;7.78;;;2.88;;
27746;SDS011;15138;51.012;4.692;2023-03-23T03:01:16;7.03;;;2.33;;
27746;SDS011;15138;51.012;4.692;2023-03-23T03:04:27;10.57;;;2.58;;
27746;SDS011;15138;51.012;4.692;2023-03-23T03:07:00;6.53;;;2.40;;
27746;SDS011;15138;51.012;4.692;2023-03-23T03:09:38;7.68;;;2.47;;
27746;SDS011;15138;51.012;4.692;2023-03-23T03:12:13;5.53;;;2.20;;
27746;SDS011;15138;51.012;4.692;2023-03-23T03:14:48;5.82;;;2.10;;
27746;SDS011;15138;51.012;4.692;2023-03-23T03:17:23;4.20;;;1.92;;
27746;SDS011;15138;51.012;4.692;2023-03-23T03:19:54;6.05;;;1.70;;
27746;SDS011;15138;51.012;4.692;2023-03-23T03:22:24;10.52;;;2.08;;
27746;SDS011;15138;51.012;4.692;2023-03-23T03:24:55;4.43;;;1.50;;
27746;SDS011;15138;51.012;4.692;2023-03-23T03:27:24;8.23;;;2.47;;
27746;SDS011;15138;51.012;4.692;2023-03-23T03:29:53;6.18;;;1.77;;
27746;SDS011;15138;51.012;4.692;2023-03-23T03:32:25;6.78;;;2.13;;
27746;SDS011;15138;51.012;4.692;2023-03-23T03:35:00;6.75;;;2.03;;
27746;SDS011;15138;51.012;4.692;2023-03-23T03:37:32;7.28;;;1.95;;
27746;SDS011;15138;51.012;4.692;2023-03-23T03:40:03;6.57;;;1.88;;
27746;SDS011;15138;51.012;4.692;2023-03-23T03:42:37;7.68;;;1.73;;
27746;SDS011;15138;51.012;4.692;2023-03-23T03:45:05;3.40;;;1.48;;
27746;SDS011;15138;51.012;4.692;2023-03-23T03:47:34;9.10;;;1.80;;
27746;SDS011;15138;51.012;4.692;2023-03-23T03:50:03;5.53;;;1.70;;
27746;SDS011;15138;51.012;4.692;2023-03-23T03:52:31;4.10;;;1.58;;
27746;SDS011;15138;51.012;4.692;2023-03-23T03:54:58;5.80;;;1.65;;
27746;SDS011;15138;51.012;4.692;2023-03-23T03:57:25;5.53;;;1.70;;
27746;SDS011;15138;51.012;4.692;2023-03-23T03:59:52;8.07;;;1.98;;
27746;SDS011;15138;51.012;4.692;2023-03-23T04:02:20;10.13;;;1.85;;
27746;SDS011;15138;51.012;4.692;2023-03-23T04:04:48;8.38;;;2.40;;
27746;SDS011;15138;51.012;4.692;2023-03-23T04:07:19;8.70;;;1.63;;
27746;SDS011;15138;51.012;4.692;2023-03-23T04:09:46;5.45;;;1.70;;
27746;SDS011;15138;51.012;4.692;2023-03-23T04:12:14;8.95;;;2.20;;
27746;SDS011;15138;51.012;4.692;2023-03-23T04:14:42;6.35;;;2.22;;
27746;SDS011;15138;51.012;4.692;2023-03-23T04:17:09;9.30;;;1.83;;
27746;SDS011;15138;51.012;4.692;2023-03-23T04:19:36;7.63;;;2.15;;
27746;SDS011;15138;51.012;4.692;2023-03-23T04:22:04;7.13;;;2.35;;
27746;SDS011;15138;51.012;4.692;2023-03-23T04:24:33;7.03;;;1.70;;
27746;SDS011;15138;51.012;4.692;2023-03-23T04:27:00;7.88;;;2.53;;
27746;SDS011;15138;51.012;4.692;2023-03-23T04:29:28;6.53;;;1.88;;
27746;SDS011;15138;51.012;4.692;2023-03-23T04:31:55;9.30;;;2.10;;
27746;SDS011;15138;51.012;4.692;2023-03-23T04:34:22;11.18;;;2.55;;
27746;SDS011;15138;51.012;4.692;2023-03-23T04:36:50;11.27;;;1.98;;
27746;SDS011;15138;51.012;4.692;2023-03-23T04:39:18;6.90;;;1.77;;
27746;SDS011;15138;51.012;4.692;2023-03-23T04:41:47;9.27;;;2.03;;
27746;SDS011;15138;51.012;4.692;2023-03-23T04:44:14;11.27;;;2.33;;
27746;SDS011;15138;51.012;4.692;2023-03-23T04:46:43;8.43;;;2.35;;
27746;SDS011;15138;51.012;4.692;2023-03-23T04:49:15;8.80;;;2.20;;
27746;SDS011;15138;51.012;4.692;2023-03-23T04:51:47;11.93;;;2.40;;
27746;SDS011;15138;51.012;4.692;2023-03-23T04:54:15;10.95;;;2.15;;
27746;SDS011;15138;51.012;4.692;2023-03-23T04:56:43;11.95;;;2.38;;
27746;SDS011;15138;51.012;4.692;2023-03-23T04:59:11;10.68;;;2.30;;
27746;SDS011;15138;51.012;4.692;2023-03-23T05:01:40;11.07;;;2.28;;
27746;SDS011;15138;51.012;4.692;2023-03-23T05:04:11;9.43;;;1.85;;
27746;SDS011;15138;51.012;4.692;2023-03-23T05:06:41;9.15;;;1.80;;
27746;SDS011;15138;51.012;4.692;2023-03-23T05:09:10;11.07;;;2.42;;
27746;SDS011;15138;51.012;4.692;2023-03-23T05:11:38;12.88;;;2.10;;
27746;SDS011;15138;51.012;4.692;2023-03-23T05:14:05;10.13;;;2.53;;
27746;SDS011;15138;51.012;4.692;2023-03-23T05:16:34;8.77;;;1.90;;
27746;SDS011;15138;51.012;4.692;2023-03-23T05:19:02;10.32;;;1.80;;
27746;SDS011;15138;51.012;4.692;2023-03-23T05:21:30;10.98;;;2.38;;
27746;SDS011;15138;51.012;4.692;2023-03-23T05:23:57;8.23;;;2.03;;
27746;SDS011;15138;51.012;4.692;2023-03-23T05:26:26;12.27;;;2.28;;
27746;SDS011;15138;51.012;4.692;2023-03-23T05:28:55;9.45;;;2.05;;
27746;SDS011;15138;51.012;4.692;2023-03-23T05:31:22;10.15;;;2.03;;
27746;SDS011;15138;51.012;4.692;2023-03-23T05:33:51;10.48;;;2.30;;
27746;SDS011;15138;51.012;4.692;2023-03-23T05:36:18;10.20;;;1.95;;
27746;SDS011;15138;51.012;4.692;2023-03-23T05:38:45;8.45;;;1.85;;
27746;SDS011;15138;51.012;4.692;2023-03-23T05:41:13;11.45;;;2.60;;
27746;SDS011;15138;51.012;4.692;2023-03-23T05:43:40;9.55;;;2.33;;
27746;SDS011;15138;51.012;4.692;2023-03-23T05:46:07;8.55;;;2.50;;
27746;SDS011;15138;51.012;4.692;2023-03-23T05:48:35;7.05;;;1.85;;
27746;SDS011;15138;51.012;4.692;2023-03-23T05:51:04;7.07;;;2.13;;
27746;SDS011;15138;51.012;4.692;2023-03-23T05:53:31;9.18;;;1.90;;
27746;SDS011;15138;51.012;4.692;2023-03-23T05:55:59;6.35;;;1.70;;
27746;SDS011;15138;51.012;4.692;2023-03-23T05:58:26;11.52;;;2.38;;
27746;SDS011;15138;51.012;4.692;2023-03-23T06:00:53;5.28;;;1.60;;
27746;SDS011;15138;51.012;4.692;2023-03-23T06:03:21;7.22;;;1.90;;
27746;SDS011;15138;51.012;4.692;2023-03-23T06:05:48;4.15;;;1.63;;
27746;SDS011;15138;51.012;4.692;2023-03-23T06:08:16;5.15;;;1.73;;
27746;SDS011;15138;51.012;4.692;2023-03-23T06:10:44;11.00;;;2.03;;
27746;SDS011;15138;51.012;4.692;2023-03-23T06:13:11;7.47;;;2.10;;
27746;SDS011;15138;51.012;4.692;2023-03-23T06:15:38;9.32;;;2.00;;
27746;SDS011;15138;51.012;4.692;2023-03-23T06:18:05;8.82;;;2.20;;
27746;SDS011;15138;51.012;4.692;2023-03-23T06:20:33;6.40;;;2.30;;
27746;SDS011;15138;51.012;4.692;2023-03-23T06:23:00;6.63;;;1.88;;
27746;SDS011;15138;51.012;4.692;2023-03-23T06:25:29;11.55;;;1.98;;
27746;SDS011;15138;51.012;4.692;2023-03-23T06:27:57;8.75;;;2.00;;
27746;SDS011;15138;51.012;4.692;2023-03-23T06:30:24;7.55;;;2.10;;
27746;SDS011;15138;51.012;4.692;2023-03-23T06:32:54;7.85;;;1.90;;
27746;SDS011;15138;51.012;4.692;2023-03-23T06:35:22;15.23;;;2.85;;
27746;SDS011;15138;51.012;4.692;2023-03-23T06:37:49;8.07;;;2.47;;
27746;SDS011;15138;51.012;4.692;2023-03-23T06:40:18;10.05;;;2.38;;
27746;SDS011;15138;51.012;4.692;2023-03-23T06:42:48;11.82;;;2.70;;
27746;SDS011;15138;51.012;4.692;2023-03-23T06:45:15;7.28;;;2.45;;
27746;SDS011;15138;51.012;4.692;2023-03-23T06:47:45;8.20;;;2.30;;
27746;SDS011;15138;51.012;4.692;2023-03-23T06:50:13;7.07;;;2.40;;
27746;SDS011;15138;51.012;4.692;2023-03-23T06:52:44;8.93;;;2.03;;
27746;SDS011;15138;51.012;4.692;2023-03-23T06:55:12;10.13;;;2.35;;
27746;SDS011;15138;51.012;4.692;2023-03-23T06:57:39;12.18;;;2.45;;
27746;SDS011;15138;51.012;4.692;2023-03-23T07:00:09;4.50;;;0.82;;
27746;SDS011;15138;51.012;4.692;2023-03-23T07:02:38;4.43;;;0.95;;
27746;SDS011;15138;51.012;4.692;2023-03-23T07:05:06;1.75;;;0.80;;
27746;SDS011;15138;51.012;4.692;2023-03-23T07:07:34;2.70;;;0.77;;
27746;SDS011;15138;51.012;4.692;2023-03-23T07:10:02;2.28;;;0.60;;
27746;SDS011;15138;51.012;4.692;2023-03-23T07:12:29;2.05;;;0.75;;
27746;SDS011;15138;51.012;4.692;2023-03-23T07:14:58;4.05;;;1.13;;
27746;SDS011;15138;51.012;4.692;2023-03-23T07:17:26;2.88;;;1.05;;
27746;SDS011;15138;51.012;4.692;2023-03-23T07:19:54;3.08;;;0.90;;
27746;SDS011;15138;51.012;4.692;2023-03-23T07:22:21;3.92;;;0.85;;
27746;SDS011;15138;51.012;4.692;2023-03-23T07:24:48;4.57;;;0.93;;
27746;SDS011;15138;51.012;4.692;2023-03-23T07:27:15;2.03;;;0.90;;
27746;SDS011;15138;51.012;4.692;2023-03-23T07:29:42;4.72;;;1.00;;
27746;SDS011;15138;51.012;4.692;2023-03-23T07:32:10;6.82;;;0.90;;
27746;SDS011;15138;51.012;4.692;2023-03-23T07:34:39;3.55;;;0.77;;
27746;SDS011;15138;51.012;4.692;2023-03-23T07:37:07;2.42;;;0.88;;
27746;SDS011;15138;51.012;4.692;2023-03-23T07:39:34;1.67;;;0.90;;
27746;SDS011;15138;51.012;4.692;2023-03-23T07:42:02;1.02;;;0.60;;
27746;SDS011;15138;51.012;4.692;2023-03-23T07:44:33;5.00;;;1.45;;
27746;SDS011;15138;51.012;4.692;2023-03-23T07:47:01;0.95;;;0.65;;
27746;SDS011;15138;51.012;4.692;2023-03-23T07:49:28;3.08;;;0.90;;
27746;SDS011;15138;51.012;4.692;2023-03-23T07:51:57;3.47;;;0.80;;
27746;SDS011;15138;51.012;4.692;2023-03-23T07:54:27;6.63;;;1.00;;
27746;SDS011;15138;51.012;4.692;2023-03-23T07:56:55;4.40;;;1.10;;
27746;SDS011;15138;51.012;4.692;2023-03-23T07:59:22;4.28;;;1.10;;
27746;SDS011;15138;51.012;4.692;2023-03-23T08:01:49;3.10;;;0.90;;
27746;SDS011;15138;51.012;4.692;2023-03-23T08:04:17;4.00;;;0.95;;
27746;SDS011;15138;51.012;4.692;2023-03-23T08:06:44;2.25;;;0.70;;
27746;SDS011;15138;51.012;4.692;2023-03-23T08:09:13;2.92;;;1.00;;
27746;SDS011;15138;51.012;4.692;2023-03-23T08:11:41;2.33;;;0.73;;
27746;SDS011;15138;51.012;4.692;2023-03-23T08:14:08;3.22;;;1.10;;
27746;SDS011;15138;51.012;4.692;2023-03-23T08:16:36;2.28;;;0.93;;
27746;SDS011;15138;51.012;4.692;2023-03-23T08:19:03;4.05;;;0.90;;
27746;SDS011;15138;51.012;4.692;2023-03-23T08:21:31;3.38;;;0.90;;
27746;SDS011;15138;51.012;4.692;2023-03-23T08:23:58;5.25;;;1.08;;
27746;SDS011;15138;51.012;4.692;2023-03-23T08:26:26;6.43;;;1.02;;
27746;SDS011;15138;51.012;4.692;2023-03-23T08:28:54;3.45;;;1.00;;
27746;SDS011;15138;51.012;4.692;2023-03-23T08:31:21;2.47;;;1.10;;
27746;SDS011;15138;51.012;4.692;2023-03-23T08:33:48;4.43;;;1.10;;
27746;SDS011;15138;51.012;4.692;2023-03-23T08:36:15;4.72;;;1.13;;
27746;SDS011;15138;51.012;4.692;2023-03-23T08:38:43;3.83;;;1.20;;
27746;SDS011;15138;51.012;4.692;2023-03-23T08:41:10;4.15;;;1.35;;
27746;SDS011;15138;51.012;4.692;2023-03-23T08:43:39;5.35;;;1.27;;
27746;SDS011;15138;51.012;4.692;2023-03-23T08:46:06;5.43;;;1.50;;
27746;SDS011;15138;51.012;4.692;2023-03-23T08:48:35;7.72;;;1.80;;
27746;SDS011;15138;51.012;4.692;2023-03-23T08:51:04;5.35;;;1.55;;
27746;SDS011;15138;51.012;4.692;2023-03-23T08:53:32;5.10;;;1.85;;
27746;SDS011;15138;51.012;4.692;2023-03-23T08:56:02;4.65;;;1.48;;
27746;SDS011;15138;51.012;4.692;2023-03-23T08:58:30;7.80;;;1.52;;
27746;SDS011;15138;51.012;4.692;2023-03-23T09:00:59;6.40;;;1.73;;
27746;SDS011;15138;51.012;4.692;2023-03-23T09:03:26;7.75;;;2.10;;
27746;SDS011;15138;51.012;4.692;2023-03-23T09:05:57;7.72;;;1.92;;
27746;SDS011;15138;51.012;4.692;2023-03-23T09:08:25;8.77;;;1.60;;
27746;SDS011;15138;51.012;4.692;2023-03-23T09:10:54;5.55;;;1.33;;
27746;SDS011;15138;51.012;4.692;2023-03-23T09:13:21;11.70;;;1.48;;
27746;SDS011;15138;51.012;4.692;2023-03-23T09:15:48;4.43;;;1.63;;
27746;SDS011;15138;51.012;4.692;2023-03-23T09:18:18;5.18;;;1.40;;
27746;SDS011;15138;51.012;4.692;2023-03-23T09:20:46;6.88;;;1.85;;
27746;SDS011;15138;51.012;4.692;2023-03-23T09:23:15;3.80;;;1.20;;
27746;SDS011;15138;51.012;4.692;2023-03-23T09:25:43;6.90;;;1.80;;
27746;SDS011;15138;51.012;4.692;2023-03-23T09:28:11;6.53;;;1.77;;
27746;SDS011;15138;51.012;4.692;2023-03-23T09:30:38;7.13;;;1.45;;
27746;SDS011;15138;51.012;4.692;2023-03-23T09:33:07;6.15;;;1.98;;
27746;SDS011;15138;51.012;4.692;2023-03-23T09:35:36;5.97;;;1.67;;
27746;SDS011;15138;51.012;4.692;2023-03-23T09:38:04;4.70;;;1.63;;
27746;SDS011;15138;51.012;4.692;2023-03-23T09:40:33;9.40;;;2.00;;
27746;SDS011;15138;51.012;4.692;2023-03-23T09:43:14;6.90;;;1.60;;
27746;SDS011;15138;51.012;4.692;2023-03-23T09:46:09;5.95;;;1.42;;
27746;SDS011;15138;51.012;4.692;2023-03-23T09:48:46;6.50;;;1.80;;
27746;SDS011;15138;51.012;4.692;2023-03-23T09:54:11;8.15;;;1.30;;
27746;SDS011;15138;51.012;4.692;2023-03-23T09:56:43;7.28;;;1.40;;
27746;SDS011;15138;51.012;4.692;2023-03-23T09:59:12;5.97;;;1.38;;
27746;SDS011;15138;51.012;4.692;2023-03-23T10:01:45;7.15;;;1.65;;
27746;SDS011;15138;51.012;4.692;2023-03-23T10:04:19;5.43;;;1.83;;
27746;SDS011;15138;51.012;4.692;2023-03-23T10:06:54;3.67;;;1.60;;
27746;SDS011;15138;51.012;4.692;2023-03-23T10:09:25;6.57;;;1.80;;
27746;SDS011;15138;51.012;4.692;2023-03-23T10:11:58;4.90;;;1.90;;
27746;SDS011;15138;51.012;4.692;2023-03-23T10:17:00;6.35;;;1.70;;
27746;SDS011;15138;51.012;4.692;2023-03-23T10:19:36;3.60;;;1.52;;
27746;SDS011;15138;51.012;4.692;2023-03-23T10:22:14;5.50;;;1.40;;
27746;SDS011;15138;51.012;4.692;2023-03-23T10:24:47;3.63;;;1.50;;
27746;SDS011;15138;51.012;4.692;2023-03-23T10:27:19;5.45;;;1.63;;
27746;SDS011;15138;51.012;4.692;2023-03-23T10:29:52;3.25;;;1.70;;
27746;SDS011;15138;51.012;4.692;2023-03-23T10:32:35;3.58;;;1.33;;
27746;SDS011;15138;51.012;4.692;2023-03-23T10:35:09;2.83;;;1.60;;
27746;SDS011;15138;51.012;4.692;2023-03-23T10:37:42;4.88;;;1.85;;
27746;SDS011;15138;51.012;4.692;2023-03-23T10:40:15;7.90;;;2.03;;
27746;SDS011;15138;51.012;4.692;2023-03-23T10:42:45;5.05;;;1.95;;
27746;SDS011;15138;51.012;4.692;2023-03-23T10:45:15;4.78;;;1.83;;
27746;SDS011;15138;51.012;4.692;2023-03-23T10:47:46;5.95;;;1.90;;
27746;SDS011;15138;51.012;4.692;2023-03-23T10:50:17;6.25;;;1.90;;
27746;SDS011;15138;51.012;4.692;2023-03-23T10:52:51;7.60;;;1.98;;
27746;SDS011;15138;51.012;4.692;2023-03-23T10:55:21;6.45;;;2.10;;
27746;SDS011;15138;51.012;4.692;2023-03-23T10:57:58;4.72;;;1.85;;
27746;SDS011;15138;51.012;4.692;2023-03-23T11:00:27;7.97;;;2.28;;
27746;SDS011;15138;51.012;4.692;2023-03-23T11:03:00;6.07;;;1.75;;
27746;SDS011;15138;51.012;4.692;2023-03-23T11:05:32;7.78;;;2.30;;
27746;SDS011;15138;51.012;4.692;2023-03-23T11:08:04;8.13;;;1.90;;
27746;SDS011;15138;51.012;4.692;2023-03-23T11:10:39;5.53;;;1.85;;
27746;SDS011;15138;51.012;4.692;2023-03-23T11:13:10;8.15;;;1.70;;
27746;SDS011;15138;51.012;4.692;2023-03-23T11:15:41;5.88;;;1.88;;
27746;SDS011;15138;51.012;4.692;2023-03-23T11:18:10;6.18;;;1.50;;
27746;SDS011;15138;51.012;4.692;2023-03-23T11:20:39;5.82;;;1.88;;
27746;SDS011;15138;51.012;4.692;2023-03-23T11:23:10;3.40;;;1.42;;
27746;SDS011;15138;51.012;4.692;2023-03-23T11:25:50;14.75;;;2.90;;
27746;SDS011;15138;51.012;4.692;2023-03-23T11:28:22;10.70;;;2.45;;
27746;SDS011;15138;51.012;4.692;2023-03-23T11:30:53;10.20;;;2.47;;
27746;SDS011;15138;51.012;4.692;2023-03-23T11:33:21;7.50;;;1.95;;
27746;SDS011;15138;51.012;4.692;2023-03-23T11:35:51;10.88;;;2.65;;
27746;SDS011;15138;51.012;4.692;2023-03-23T11:38:21;10.88;;;2.58;;
27746;SDS011;15138;51.012;4.692;2023-03-23T11:40:53;9.18;;;2.72;;
27746;SDS011;15138;51.012;4.692;2023-03-23T11:43:21;7.45;;;2.05;;
27746;SDS011;15138;51.012;4.692;2023-03-23T11:45:51;9.40;;;2.60;;
27746;SDS011;15138;51.012;4.692;2023-03-23T11:48:27;13.82;;;2.67;;
27746;SDS011;15138;51.012;4.692;2023-03-23T11:51:01;7.80;;;2.37;;
27746;SDS011;15138;51.012;4.692;2023-03-23T11:53:39;9.75;;;2.72;;
27746;SDS011;15138;51.012;4.692;2023-03-23T11:56:14;9.98;;;2.78;;
27746;SDS011;15138;51.012;4.692;2023-03-23T11:58:46;9.00;;;2.45;;
27746;SDS011;15138;51.012;4.692;2023-03-23T12:01:16;9.30;;;2.45;;
27746;SDS011;15138;51.012;4.692;2023-03-23T12:03:52;8.10;;;2.58;;
27746;SDS011;15138;51.012;4.692;2023-03-23T12:06:32;4.03;;;1.45;;
27746;SDS011;15138;51.012;4.692;2023-03-23T12:09:10;11.18;;;2.53;;
27746;SDS011;15138;51.012;4.692;2023-03-23T12:11:52;11.98;;;2.60;;
27746;SDS011;15138;51.012;4.692;2023-03-23T12:14:31;11.02;;;2.65;;
27746;SDS011;15138;51.012;4.692;2023-03-23T12:17:14;7.95;;;1.98;;
27746;SDS011;15138;51.012;4.692;2023-03-23T12:19:51;12.00;;;2.38;;
27746;SDS011;15138;51.012;4.692;2023-03-23T12:22:31;9.38;;;2.28;;
27746;SDS011;15138;51.012;4.692;2023-03-23T12:25:12;7.32;;;1.85;;
27746;SDS011;15138;51.012;4.692;2023-03-23T12:27:49;10.90;;;2.10;;
27746;SDS011;15138;51.012;4.692;2023-03-23T12:30:28;6.10;;;1.80;;
27746;SDS011;15138;51.012;4.692;2023-03-23T12:33:01;7.72;;;1.80;;
27746;SDS011;15138;51.012;4.692;2023-03-23T12:35:42;8.80;;;1.67;;
27746;SDS011;15138;51.012;4.692;2023-03-23T12:38:20;5.47;;;1.85;;
27746;SDS011;15138;51.012;4.692;2023-03-23T12:41:09;8.75;;;2.15;;
27746;SDS011;15138;51.012;4.692;2023-03-23T12:43:46;9.07;;;2.15;;
27746;SDS011;15138;51.012;4.692;2023-03-23T12:46:21;8.48;;;2.05;;
27746;SDS011;15138;51.012;4.692;2023-03-23T12:49:00;7.45;;;1.65;;
27746;SDS011;15138;51.012;4.692;2023-03-23T12:51:31;11.48;;;2.00;;
27746;SDS011;15138;51.012;4.692;2023-03-23T12:54:03;5.32;;;1.75;;
27746;SDS011;15138;51.012;4.692;2023-03-23T12:56:39;7.32;;;1.48;;
27746;SDS011;15138;51.012;4.692;2023-03-23T12:59:14;8.63;;;1.95;;
27746;SDS011;15138;51.012;4.692;2023-03-23T13:01:45;8.07;;;1.70;;
27746;SDS011;15138;51.012;4.692;2023-03-23T13:04:15;11.48;;;1.80;;
27746;SDS011;15138;51.012;4.692;2023-03-23T13:06:47;11.73;;;2.00;;
27746;SDS011;15138;51.012;4.692;2023-03-23T13:09:16;10.13;;;2.10;;
27746;SDS011;15138;51.012;4.692;2023-03-23T13:11:48;7.40;;;1.98;;
27746;SDS011;15138;51.012;4.692;2023-03-23T13:17:13;9.23;;;1.17;;
27746;SDS011;15138;51.012;4.692;2023-03-23T13:19:53;13.98;;;2.72;;
27746;SDS011;15138;51.012;4.692;2023-03-23T13:22:41;8.25;;;1.90;;
27746;SDS011;15138;51.012;4.692;2023-03-23T13:25:15;7.38;;;2.47;;
27746;SDS011;15138;51.012;4.692;2023-03-23T13:27:57;11.15;;;2.22;;
27746;SDS011;15138;51.012;4.692;2023-03-23T13:30:26;9.48;;;1.90;;
27746;SDS011;15138;51.012;4.692;2023-03-23T13:33:01;12.52;;;2.00;;
27746;SDS011;15138;51.012;4.692;2023-03-23T13:38:00;7.70;;;1.70;;
27746;SDS011;15138;51.012;4.692;2023-03-23T13:40:28;6.90;;;2.05;;
27746;SDS011;15138;51.012;4.692;2023-03-23T13:42:59;7.10;;;2.25;;
27746;SDS011;15138;51.012;4.692;2023-03-23T13:45:35;10.00;;;1.90;;
27746;SDS011;15138;51.012;4.692;2023-03-23T13:48:18;11.18;;;1.77;;
27746;SDS011;15138;51.012;4.692;2023-03-23T13:50:49;14.45;;;2.03;;
27746;SDS011;15138;51.012;4.692;2023-03-23T13:53:23;6.97;;;2.30;;
27746;SDS011;15138;51.012;4.692;2023-03-23T13:56:05;9.68;;;2.42;;
27746;SDS011;15138;51.012;4.692;2023-03-23T13:58:45;9.52;;;2.47;;
27746;SDS011;15138;51.012;4.692;2023-03-23T14:01:14;8.57;;;2.25;;
27746;SDS011;15138;51.012;4.692;2023-03-23T14:03:45;12.25;;;1.42;;
27746;SDS011;15138;51.012;4.692;2023-03-23T14:06:16;7.88;;;2.30;;
27746;SDS011;15138;51.012;4.692;2023-03-23T14:08:48;8.68;;;1.85;;
27746;SDS011;15138;51.012;4.692;2023-03-23T14:11:19;13.43;;;2.42;;
27746;SDS011;15138;51.012;4.692;2023-03-23T14:13:58;15.05;;;2.80;;
27746;SDS011;15138;51.012;4.692;2023-03-23T14:16:31;8.45;;;2.08;;
27746;SDS011;15138;51.012;4.692;2023-03-23T14:19:03;8.70;;;2.10;;
27746;SDS011;15138;51.012;4.692;2023-03-23T14:21:41;12.07;;;2.40;;
27746;SDS011;15138;51.012;4.692;2023-03-23T14:24:15;9.13;;;2.28;;
27746;SDS011;15138;51.012;4.692;2023-03-23T14:26:44;9.93;;;2.17;;
27746;SDS011;15138;51.012;4.692;2023-03-23T14:29:13;10.98;;;2.25;;
27746;SDS011;15138;51.012;4.692;2023-03-23T14:31:40;9.30;;;2.38;;
27746;SDS011;15138;51.012;4.692;2023-03-23T14:34:11;8.55;;;2.20;;
27746;SDS011;15138;51.012;4.692;2023-03-23T14:36:40;9.50;;;2.10;;
27746;SDS011;15138;51.012;4.692;2023-03-23T14:39:13;7.47;;;1.90;;
27746;SDS011;15138;51.012;4.692;2023-03-23T14:41:45;10.25;;;2.33;;
27746;SDS011;15138;51.012;4.692;2023-03-23T14:44:16;9.68;;;2.47;;
27746;SDS011;15138;51.012;4.692;2023-03-23T14:46:47;10.10;;;2.03;;
27746;SDS011;15138;51.012;4.692;2023-03-23T14:49:16;8.20;;;1.98;;
27746;SDS011;15138;51.012;4.692;2023-03-23T14:51:48;7.68;;;1.95;;
27746;SDS011;15138;51.012;4.692;2023-03-23T14:54:19;8.88;;;2.10;;
27746;SDS011;15138;51.012;4.692;2023-03-23T14:56:49;7.95;;;2.20;;
27746;SDS011;15138;51.012;4.692;2023-03-23T14:59:18;8.60;;;2.42;;
27746;SDS011;15138;51.012;4.692;2023-03-23T15:01:46;11.45;;;2.60;;
27746;SDS011;15138;51.012;4.692;2023-03-23T15:04:16;13.48;;;2.55;;
27746;SDS011;15138;51.012;4.692;2023-03-23T15:06:47;11.45;;;2.70;;
27746;SDS011;15138;51.012;4.692;2023-03-23T15:09:16;11.18;;;2.70;;
27746;SDS011;15138;51.012;4.692;2023-03-23T15:11:50;10.98;;;2.55;;
27746;SDS011;15138;51.012;4.692;2023-03-23T15:16:50;15.70;;;3.00;;
27746;SDS011;15138;51.012;4.692;2023-03-23T15:19:20;12.07;;;2.28;;
27746;SDS011;15138;51.012;4.692;2023-03-23T15:21:51;14.98;;;2.65;;
27746;SDS011;15138;51.012;4.692;2023-03-23T15:24:27;12.40;;;3.20;;
27746;SDS011;15138;51.012;4.692;2023-03-23T15:27:03;10.10;;;2.63;;